createdAt,value
2018-03-26T00:00:48.117Z,4.8
2018-03-26T00:01:50.846Z,4.8
2018-03-26T00:02:53.565Z,4.8
2018-03-26T00:03:56.001Z,4.9
2018-03-26T00:04:59.005Z,4.9
2018-03-26T00:06:01.435Z,5
2018-03-26T00:07:03.869Z,5
2018-03-26T00:08:06.303Z,4.9
2018-03-26T00:09:09.022Z,4.8
2018-03-26T00:10:11.737Z,4.8
2018-03-26T00:11:14.157Z,4.8
2018-03-26T00:12:16.588Z,4.8
2018-03-26T00:13:19.017Z,4.8
2018-03-26T00:14:21.437Z,4.9
2018-03-26T00:15:23.861Z,4.9
2018-03-26T00:16:26.296Z,4.9
2018-03-26T00:17:29.004Z,4.8
2018-03-26T00:18:31.443Z,4.8
2018-03-26T00:19:33.869Z,4.8
2018-03-26T00:20:36.595Z,4.9
2018-03-26T00:21:39.022Z,5
2018-03-26T00:22:41.770Z,4.8
2018-03-26T00:23:44.199Z,4.9
2018-03-26T00:24:46.634Z,4.9
2018-03-26T00:25:49.342Z,4.8
2018-03-26T00:26:51.781Z,4.8
2018-03-26T00:27:54.211Z,4.8
2018-03-26T00:28:57.226Z,4.8
2018-03-26T00:29:59.659Z,4.9
2018-03-26T00:31:02.084Z,4.9
2018-03-26T00:32:04.509Z,4.9
2018-03-26T00:33:06.946Z,4.9
2018-03-26T00:34:09.373Z,4.9
2018-03-26T00:35:11.798Z,4.8
2018-03-26T00:36:14.247Z,4.9
2018-03-26T00:37:16.664Z,4.9
2018-03-26T00:38:19.099Z,4.8
2018-03-26T00:39:21.812Z,4.9
2018-03-26T00:40:24.239Z,4.9
2018-03-26T00:41:26.662Z,4.9
2018-03-26T00:42:29.377Z,4.9
2018-03-26T00:43:32.097Z,4.9
2018-03-26T00:44:34.523Z,4.8
2018-03-26T00:45:36.952Z,4.8
2018-03-26T00:46:39.393Z,4.9
2018-03-26T00:47:41.820Z,4.9
2018-03-26T00:48:44.537Z,4.9
2018-03-26T00:49:46.964Z,4.8
2018-03-26T00:50:49.688Z,4.9
2018-03-26T00:51:52.124Z,4.9
2018-03-26T00:52:54.559Z,4.9
2018-03-26T00:53:56.991Z,4.9
2018-03-26T00:54:59.427Z,4.9
2018-03-26T00:56:02.154Z,4.9
2018-03-26T00:57:04.587Z,4.9
2018-03-26T00:58:07.024Z,4.9
2018-03-26T00:59:09.739Z,4.9
2018-03-26T01:00:12.451Z,4.9
2018-03-26T01:01:15.200Z,4.9
2018-03-26T01:02:17.915Z,4.9
2018-03-26T01:03:20.343Z,5
2018-03-26T01:04:22.776Z,4.9
2018-03-26T01:05:25.209Z,4.9
2018-03-26T01:06:27.637Z,4.9
2018-03-26T01:07:30.072Z,4.9
2018-03-26T01:08:32.489Z,4.9
2018-03-26T01:09:34.923Z,4.9
2018-03-26T01:10:37.641Z,5
2018-03-26T01:11:40.077Z,5
2018-03-26T01:12:42.802Z,5
2018-03-26T01:13:45.233Z,5
2018-03-26T01:14:47.669Z,4.9
2018-03-26T01:15:50.418Z,5
2018-03-26T01:16:52.848Z,4.9
2018-03-26T01:17:55.277Z,4.9
2018-03-26T01:18:57.700Z,4.9
2018-03-26T01:20:00.128Z,4.9
2018-03-26T01:21:02.563Z,5.1
2018-03-26T01:22:04.996Z,5
2018-03-26T01:23:07.702Z,4.9
2018-03-26T01:24:10.145Z,4.9
2018-03-26T01:25:12.572Z,5
2018-03-26T01:26:15.280Z,5
2018-03-26T01:27:17.716Z,5
2018-03-26T01:28:20.140Z,5
2018-03-26T01:29:22.862Z,5.1
2018-03-26T01:30:25.291Z,5
2018-03-26T01:31:27.719Z,5.1
2018-03-26T01:32:30.153Z,4.9
2018-03-26T01:33:32.583Z,5
2018-03-26T01:34:35.307Z,5
2018-03-26T01:35:37.739Z,5
2018-03-26T01:36:40.440Z,5.1
2018-03-26T01:37:42.881Z,4.9
2018-03-26T01:38:45.310Z,5
2018-03-26T01:39:48.032Z,5.1
2018-03-26T01:40:50.463Z,4.9
2018-03-26T01:41:52.889Z,4.9
2018-03-26T01:42:55.324Z,4.9
2018-03-26T01:43:57.761Z,4.9
2018-03-26T01:45:00.475Z,5
2018-03-26T01:46:02.899Z,4.9
2018-03-26T01:47:05.330Z,4.9
2018-03-26T01:48:08.062Z,5
2018-03-26T01:49:10.505Z,5
2018-03-26T01:50:12.940Z,4.9
2018-03-26T01:51:15.360Z,5
2018-03-26T01:52:18.081Z,5
2018-03-26T01:53:20.507Z,5
2018-03-26T01:54:22.936Z,5
2018-03-26T01:55:25.657Z,4.9
2018-03-26T01:56:28.365Z,5
2018-03-26T01:57:30.796Z,4.9
2018-03-26T01:58:33.243Z,4.9
2018-03-26T01:59:35.663Z,5.1
2018-03-26T02:00:38.090Z,5
2018-03-26T02:01:41.110Z,5
2018-03-26T02:02:43.537Z,5.1
2018-03-26T02:03:45.970Z,5
2018-03-26T02:04:48.442Z,5
2018-03-26T02:05:51.108Z,4.9
2018-03-26T02:06:53.825Z,5
2018-03-26T02:07:56.249Z,5
2018-03-26T02:08:58.683Z,5
2018-03-26T02:10:01.126Z,5.1
2018-03-26T02:11:03.551Z,5.1
2018-03-26T02:12:06.287Z,5
2018-03-26T02:13:08.995Z,5
2018-03-26T02:14:11.422Z,5
2018-03-26T02:15:13.860Z,4.9
2018-03-26T02:16:16.284Z,5
2018-03-26T02:17:18.707Z,5.1
2018-03-26T02:18:21.440Z,5
2018-03-26T02:19:24.154Z,5.1
2018-03-26T02:20:26.586Z,5.1
2018-03-26T02:21:29.015Z,5
2018-03-26T02:22:31.733Z,5
2018-03-26T02:23:34.157Z,5
2018-03-26T02:24:36.599Z,5
2018-03-26T02:25:39.024Z,5.1
2018-03-26T02:26:41.495Z,5.1
2018-03-26T02:27:44.178Z,5
2018-03-26T02:28:46.899Z,5
2018-03-26T02:29:49.619Z,5.1
2018-03-26T02:30:52.056Z,5
2018-03-26T02:31:54.475Z,5
2018-03-26T02:32:56.905Z,5
2018-03-26T02:33:59.932Z,5
2018-03-26T02:35:02.359Z,5.1
2018-03-26T02:36:04.787Z,5
2018-03-26T02:37:07.508Z,5.1
2018-03-26T02:38:09.941Z,5
2018-03-26T02:39:12.368Z,5
2018-03-26T02:40:14.798Z,5
2018-03-26T02:41:17.233Z,5
2018-03-26T02:42:20.250Z,5
2018-03-26T02:43:23.570Z,5.1
2018-03-26T02:44:25.991Z,5.1
2018-03-26T02:45:28.420Z,5.1
2018-03-26T02:46:31.168Z,5
2018-03-26T02:47:33.582Z,5.1
2018-03-26T02:48:36.007Z,5.1
2018-03-26T02:49:38.438Z,5
2018-03-26T02:50:40.939Z,5.1
2018-03-26T02:51:43.293Z,5
2018-03-26T02:52:45.727Z,5.1
2018-03-26T02:53:48.162Z,5.1
2018-03-26T02:54:50.590Z,5
2018-03-26T02:55:53.016Z,5
2018-03-26T02:56:55.441Z,5.1
2018-03-26T02:57:57.877Z,5
2018-03-26T02:59:00.305Z,4.9
2018-03-26T03:00:03.622Z,5
2018-03-26T03:01:06.047Z,5.1
2018-03-26T03:02:08.771Z,5.1
2018-03-26T03:03:11.201Z,5.1
2018-03-26T03:04:14.239Z,5
2018-03-26T03:05:16.670Z,5.2
2018-03-26T03:06:19.113Z,5.1
2018-03-26T03:07:21.555Z,5
2018-03-26T03:08:24.277Z,5
2018-03-26T03:09:26.984Z,5
2018-03-26T03:10:29.704Z,5
2018-03-26T03:11:32.125Z,5.2
2018-03-26T03:12:34.568Z,5.1
2018-03-26T03:13:36.993Z,5
2018-03-26T03:14:39.402Z,5.1
2018-03-26T03:15:42.129Z,5
2018-03-26T03:16:44.559Z,5
2018-03-26T03:17:46.995Z,5
2018-03-26T03:18:49.421Z,5.1
2018-03-26T03:19:51.855Z,5
2018-03-26T03:20:54.280Z,5
2018-03-26T03:21:56.710Z,5.1
2018-03-26T03:22:59.430Z,5.1
2018-03-26T03:24:01.856Z,5
2018-03-26T03:25:04.294Z,5
2018-03-26T03:26:06.721Z,5.1
2018-03-26T03:27:09.154Z,5.1
2018-03-26T03:28:11.883Z,5.1
2018-03-26T03:29:14.314Z,5
2018-03-26T03:30:17.044Z,5.1
2018-03-26T03:31:19.474Z,5
2018-03-26T03:32:21.903Z,5
2018-03-26T03:33:24.338Z,5
2018-03-26T03:34:26.824Z,5
2018-03-26T03:35:29.558Z,5.1
2018-03-26T03:36:32.264Z,5.1
2018-03-26T03:37:34.694Z,5.1
2018-03-26T03:38:37.129Z,5.1
2018-03-26T03:39:39.549Z,5
2018-03-26T03:40:41.979Z,5
2018-03-26T03:41:44.687Z,5.1
2018-03-26T03:42:47.130Z,5.1
2018-03-26T03:43:49.567Z,5
2018-03-26T03:44:52.897Z,5.1
2018-03-26T03:45:55.597Z,5.1
2018-03-26T03:46:58.046Z,5.1
2018-03-26T03:48:00.468Z,5
2018-03-26T03:49:02.900Z,5
2018-03-26T03:50:05.345Z,5.1
2018-03-26T03:51:07.766Z,5.1
2018-03-26T03:52:10.206Z,5.1
2018-03-26T03:53:13.220Z,5.1
2018-03-26T03:54:15.960Z,5.1
2018-03-26T03:55:18.389Z,5
2018-03-26T03:56:20.811Z,5
2018-03-26T03:57:23.515Z,5
2018-03-26T03:58:26.244Z,5.1
2018-03-26T03:59:28.674Z,5.1
2018-03-26T04:00:31.106Z,5
2018-03-26T04:01:33.546Z,5.1
2018-03-26T04:02:35.983Z,5.2
2018-03-26T04:03:38.417Z,5.1
2018-03-26T04:04:40.852Z,5
2018-03-26T04:05:43.268Z,5
2018-03-26T04:06:45.697Z,5
2018-03-26T04:07:48.122Z,5
2018-03-26T04:08:50.551Z,5.2
2018-03-26T04:09:53.265Z,5.1
2018-03-26T04:10:55.700Z,5
2018-03-26T04:11:58.133Z,5
2018-03-26T04:13:00.631Z,5
2018-03-26T04:14:03.338Z,5
2018-03-26T04:15:05.770Z,5
2018-03-26T04:16:08.192Z,5.1
2018-03-26T04:17:10.904Z,5
2018-03-26T04:18:13.340Z,5
2018-03-26T04:19:15.769Z,5
2018-03-26T04:20:18.199Z,5
2018-03-26T04:21:20.630Z,5.1
2018-03-26T04:22:23.053Z,5.1
2018-03-26T04:23:25.470Z,5
2018-03-26T04:24:27.905Z,5.1
2018-03-26T04:25:30.328Z,5.1
2018-03-26T04:26:32.772Z,5
2018-03-26T04:27:35.195Z,5
2018-03-26T04:28:37.932Z,5
2018-03-26T04:29:40.361Z,5
2018-03-26T04:30:42.793Z,5
2018-03-26T04:31:45.217Z,5.1
2018-03-26T04:32:47.651Z,5
2018-03-26T04:33:50.071Z,4.9
2018-03-26T04:34:52.502Z,5
2018-03-26T04:35:54.921Z,5
2018-03-26T04:36:57.343Z,5.1
2018-03-26T04:37:59.783Z,5
2018-03-26T04:39:02.209Z,4.9
2018-03-26T04:40:04.644Z,4.9
2018-03-26T04:41:07.071Z,5
2018-03-26T04:42:09.496Z,5
2018-03-26T04:43:11.930Z,5.1
2018-03-26T04:44:14.652Z,5
2018-03-26T04:45:17.068Z,5.1
2018-03-26T04:46:19.514Z,4.9
2018-03-26T04:47:21.943Z,5
2018-03-26T04:48:24.649Z,4.9
2018-03-26T04:49:27.070Z,4.9
2018-03-26T04:50:29.788Z,4.9
2018-03-26T04:51:32.210Z,5.1
2018-03-26T04:52:34.640Z,4.9
2018-03-26T04:53:37.068Z,5.1
2018-03-26T04:54:39.498Z,5
2018-03-26T04:55:42.227Z,4.9
2018-03-26T04:56:44.653Z,4.9
2018-03-26T04:57:47.088Z,4.9
2018-03-26T04:58:49.521Z,4.9
2018-03-26T04:59:51.945Z,5
2018-03-26T05:00:54.378Z,5
2018-03-26T05:01:57.077Z,4.8
2018-03-26T05:02:59.512Z,4.8
2018-03-26T05:04:02.229Z,4.9
2018-03-26T05:05:04.949Z,4.9
2018-03-26T05:06:07.663Z,4.9
2018-03-26T05:07:10.377Z,4.8
2018-03-26T05:08:12.799Z,4.9
2018-03-26T05:09:15.240Z,4.9
2018-03-26T05:10:18.249Z,4.9
2018-03-26T05:11:20.671Z,4.9
2018-03-26T05:12:23.107Z,4.9
2018-03-26T05:13:25.534Z,4.9
2018-03-26T05:14:27.964Z,4.9
2018-03-26T05:15:30.396Z,4.9
2018-03-26T05:16:32.818Z,4.9
2018-03-26T05:17:35.243Z,4.9
2018-03-26T05:18:37.679Z,4.9
2018-03-26T05:19:40.101Z,4.9
2018-03-26T05:20:42.536Z,4.9
2018-03-26T05:21:45.254Z,4.8
2018-03-26T05:22:47.723Z,4.8
2018-03-26T05:23:50.114Z,4.9
2018-03-26T05:24:52.553Z,4.7
2018-03-26T05:25:54.975Z,4.8
2018-03-26T05:26:57.408Z,4.9
2018-03-26T05:27:59.838Z,4.9
2018-03-26T05:29:02.269Z,4.9
2018-03-26T05:30:04.687Z,4.9
2018-03-26T05:31:07.138Z,4.9
2018-03-26T05:32:09.552Z,4.9
2018-03-26T05:33:12.260Z,5
2018-03-26T05:34:14.686Z,4.9
2018-03-26T05:35:17.136Z,4.8
2018-03-26T05:36:19.558Z,4.8
2018-03-26T05:37:22.264Z,4.8
2018-03-26T05:38:24.985Z,4.9
2018-03-26T05:39:27.407Z,4.8
2018-03-26T05:40:30.476Z,4.9
2018-03-26T05:41:33.492Z,4.9
2018-03-26T05:42:35.914Z,4.8
2018-03-26T05:43:38.348Z,4.9
2018-03-26T05:44:40.775Z,4.8
2018-03-26T05:45:43.205Z,4.8
2018-03-26T05:46:45.932Z,4.9
2018-03-26T05:47:48.354Z,4.9
2018-03-26T05:48:50.776Z,4.9
2018-03-26T05:49:53.214Z,4.8
2018-03-26T05:50:55.927Z,4.9
2018-03-26T05:51:58.360Z,4.9
2018-03-26T05:53:00.795Z,4.9
2018-03-26T05:54:03.210Z,4.8
2018-03-26T05:55:05.643Z,4.8
2018-03-26T05:56:08.076Z,4.8
2018-03-26T05:57:10.501Z,5
2018-03-26T05:58:13.228Z,5
2018-03-26T05:59:15.657Z,4.9
2018-03-26T06:00:18.083Z,4.9
2018-03-26T06:01:20.510Z,4.8
2018-03-26T06:02:22.944Z,4.8
2018-03-26T06:03:25.369Z,4.8
2018-03-26T06:04:27.801Z,4.8
2018-03-26T06:05:30.805Z,4.8
2018-03-26T06:06:33.532Z,4.9
2018-03-26T06:07:35.967Z,4.8
2018-03-26T06:08:38.386Z,4.8
2018-03-26T06:09:41.145Z,4.7
2018-03-26T06:10:43.856Z,4.8
2018-03-26T06:11:46.568Z,4.8
2018-03-26T06:12:49.292Z,4.8
2018-03-26T06:13:51.718Z,4.8
2018-03-26T06:14:54.149Z,4.8
2018-03-26T06:15:56.581Z,4.8
2018-03-26T06:16:58.999Z,4.8
2018-03-26T06:18:01.439Z,4.8
2018-03-26T06:19:04.260Z,4.8
2018-03-26T06:20:06.930Z,5
2018-03-26T06:21:09.367Z,4.8
2018-03-26T06:22:12.091Z,4.8
2018-03-26T06:23:14.517Z,4.8
2018-03-26T06:24:17.242Z,4.8
2018-03-26T06:25:19.978Z,4.8
2018-03-26T06:26:22.994Z,4.8
2018-03-26T06:27:25.434Z,5.1
2018-03-26T06:28:28.725Z,4.8
2018-03-26T06:29:31.144Z,4.8
2018-03-26T06:30:34.521Z,4.8
2018-03-26T06:31:36.911Z,4.9
2018-03-26T06:32:39.346Z,4.8
2018-03-26T06:33:41.773Z,4.8
2018-03-26T06:34:44.213Z,4.9
2018-03-26T06:35:46.923Z,4.8
2018-03-26T06:36:49.353Z,4.8
2018-03-26T06:37:51.778Z,4.8
2018-03-26T06:38:54.201Z,4.8
2018-03-26T06:39:56.633Z,4.9
2018-03-26T06:40:59.064Z,4.9
2018-03-26T06:42:01.797Z,4.8
2018-03-26T06:43:04.226Z,4.8
2018-03-26T06:44:06.706Z,4.8
2018-03-26T06:45:09.379Z,4.7
2018-03-26T06:46:11.820Z,4.7
2018-03-26T06:47:14.257Z,4.8
2018-03-26T06:48:16.686Z,4.8
2018-03-26T06:49:19.115Z,4.8
2018-03-26T06:50:21.553Z,4.9
2018-03-26T06:51:24.545Z,4.8
2018-03-26T06:52:26.978Z,4.7
2018-03-26T06:53:29.396Z,4.7
2018-03-26T06:54:31.819Z,4.7
2018-03-26T06:55:34.244Z,4.9
2018-03-26T06:56:36.673Z,4.8
2018-03-26T06:57:39.098Z,4.8
2018-03-26T06:58:41.535Z,4.7
2018-03-26T06:59:43.960Z,4.8
2018-03-26T07:00:46.384Z,4.7
2018-03-26T07:01:48.813Z,4.9
2018-03-26T07:02:51.255Z,4.8
2018-03-26T07:03:53.685Z,4.9
2018-03-26T07:04:56.104Z,4.8
2018-03-26T07:05:58.528Z,4.8
2018-03-26T07:07:00.960Z,4.9
2018-03-26T07:08:04.203Z,4.8
2018-03-26T07:09:07.565Z,4.9
2018-03-26T07:10:09.975Z,4.8
2018-03-26T07:11:12.410Z,4.8
2018-03-26T07:12:15.133Z,4.8
2018-03-26T07:13:17.554Z,4.9
2018-03-26T07:14:20.263Z,4.9
2018-03-26T07:15:23.271Z,4.9
2018-03-26T07:16:25.702Z,4.8
2018-03-26T07:17:28.137Z,4.9
2018-03-26T07:18:30.796Z,4.8
2018-03-26T07:19:33.232Z,4.7
2018-03-26T07:20:35.950Z,4.8
2018-03-26T07:21:38.390Z,4.8
2018-03-26T07:22:41.157Z,4.7
2018-03-26T07:23:43.584Z,4.8
2018-03-26T07:24:46.007Z,4.9
2018-03-26T07:25:48.441Z,4.9
2018-03-26T07:26:50.871Z,5
2018-03-26T07:27:53.303Z,4.8
2018-03-26T07:28:55.747Z,4.8
2018-03-26T07:29:58.158Z,4.8
2018-03-26T07:31:00.887Z,5
2018-03-26T07:32:03.307Z,4.9
2018-03-26T07:33:05.732Z,4.8
2018-03-26T07:34:08.177Z,5
2018-03-26T07:35:10.894Z,4.8
2018-03-26T07:36:13.320Z,4.8
2018-03-26T07:37:15.751Z,4.7
2018-03-26T07:38:18.190Z,4.8
2018-03-26T07:39:20.620Z,4.9
2018-03-26T07:40:23.343Z,4.9
2018-03-26T07:41:26.059Z,4.8
2018-03-26T07:42:28.485Z,4.8
2018-03-26T07:43:30.925Z,4.9
2018-03-26T07:44:33.347Z,4.7
2018-03-26T07:45:35.778Z,4.8
2018-03-26T07:46:38.200Z,4.8
2018-03-26T07:47:40.631Z,5
2018-03-26T07:48:43.067Z,4.8
2018-03-26T07:49:45.499Z,4.8
2018-03-26T07:50:47.916Z,4.7
2018-03-26T07:51:50.338Z,4.8
2018-03-26T07:52:53.073Z,4.7
2018-03-26T07:53:55.497Z,5
2018-03-26T07:54:58.231Z,4.8
2018-03-26T07:56:00.992Z,4.8
2018-03-26T07:57:03.429Z,4.8
2018-03-26T07:58:05.870Z,4.8
2018-03-26T07:59:08.301Z,4.8
2018-03-26T08:00:10.719Z,4.8
2018-03-26T08:01:13.447Z,4.7
2018-03-26T08:02:16.156Z,4.8
2018-03-26T08:03:18.594Z,4.8
2018-03-26T08:04:21.020Z,4.8
2018-03-26T08:05:23.462Z,4.9
2018-03-26T08:06:26.167Z,4.8
2018-03-26T08:07:28.604Z,4.7
2018-03-26T08:08:31.314Z,4.8
2018-03-26T08:09:33.761Z,4.8
2018-03-26T08:10:36.474Z,5.1
2018-03-26T08:11:38.899Z,4.8
2018-03-26T08:12:41.595Z,4.8
2018-03-26T08:13:44.029Z,4.8
2018-03-26T08:14:46.445Z,4.9
2018-03-26T08:15:49.169Z,4.8
2018-03-26T08:16:51.886Z,4.8
2018-03-26T08:17:54.596Z,4.7
2018-03-26T08:18:57.022Z,4.8
2018-03-26T08:19:59.514Z,4.7
2018-03-26T08:21:01.922Z,4.8
2018-03-26T08:22:04.369Z,4.9
2018-03-26T08:23:06.794Z,4.8
2018-03-26T08:24:09.219Z,4.8
2018-03-26T08:25:11.655Z,4.8
2018-03-26T08:26:14.083Z,4.8
2018-03-26T08:27:16.805Z,4.8
2018-03-26T08:28:19.237Z,4.8
2018-03-26T08:29:21.968Z,4.9
2018-03-26T08:30:24.404Z,4.8
2018-03-26T08:31:26.823Z,4.8
2018-03-26T08:32:29.259Z,4.8
2018-03-26T08:33:31.699Z,4.8
2018-03-26T08:34:34.125Z,4.8
2018-03-26T08:35:36.555Z,4.9
2018-03-26T08:36:38.979Z,4.8
2018-03-26T08:37:41.698Z,4.8
2018-03-26T08:38:44.128Z,4.9
2018-03-26T08:39:46.555Z,4.8
2018-03-26T08:40:48.984Z,4.8
2018-03-26T08:41:51.423Z,4.8
2018-03-26T08:42:53.862Z,4.9
2018-03-26T08:43:56.297Z,4.8
2018-03-26T08:44:58.734Z,4.9
2018-03-26T08:46:01.158Z,4.8
2018-03-26T08:47:03.577Z,4.7
2018-03-26T08:48:06.013Z,4.8
2018-03-26T08:49:08.442Z,4.8
2018-03-26T08:50:11.029Z,4.8
2018-03-26T08:51:13.302Z,4.8
2018-03-26T08:52:15.727Z,4.9
2018-03-26T08:53:18.447Z,4.8
2018-03-26T08:54:20.885Z,4.8
2018-03-26T08:55:23.301Z,4.9
2018-03-26T08:56:25.734Z,4.8
2018-03-26T08:57:28.171Z,4.9
2018-03-26T08:58:30.591Z,4.8
2018-03-26T08:59:33.329Z,4.8
2018-03-26T09:00:36.327Z,4.8
2018-03-26T09:01:38.757Z,4.7
2018-03-26T09:02:41.188Z,4.8
2018-03-26T09:03:43.628Z,4.7
2018-03-26T09:04:46.340Z,4.9
2018-03-26T09:05:48.776Z,4.9
2018-03-26T09:06:51.189Z,4.9
2018-03-26T09:07:53.626Z,4.8
2018-03-26T09:08:56.051Z,4.8
2018-03-26T09:09:58.489Z,4.7
2018-03-26T09:11:00.911Z,4.8
2018-03-26T09:12:03.640Z,4.8
2018-03-26T09:13:06.067Z,4.9
2018-03-26T09:14:08.502Z,4.8
2018-03-26T09:15:10.929Z,4.9
2018-03-26T09:16:13.362Z,4.8
2018-03-26T09:17:16.084Z,4.8
2018-03-26T09:18:18.519Z,4.7
2018-03-26T09:19:20.941Z,4.8
2018-03-26T09:20:23.676Z,4.9
2018-03-26T09:21:26.097Z,4.8
2018-03-26T09:22:28.529Z,4.9
2018-03-26T09:23:31.248Z,4.8
2018-03-26T09:24:33.672Z,4.8
2018-03-26T09:25:36.090Z,4.8
2018-03-26T09:26:38.525Z,4.7
2018-03-26T09:27:40.944Z,4.8
2018-03-26T09:28:43.376Z,4.8
2018-03-26T09:29:45.805Z,4.8
2018-03-26T09:30:48.543Z,4.8
2018-03-26T09:31:50.967Z,4.7
2018-03-26T09:32:53.684Z,4.7
2018-03-26T09:33:56.112Z,4.8
2018-03-26T09:34:58.832Z,4.8
2018-03-26T09:36:01.258Z,4.8
2018-03-26T09:37:03.688Z,4.9
2018-03-26T09:38:06.386Z,4.9
2018-03-26T09:39:08.821Z,4.8
2018-03-26T09:40:11.259Z,4.8
2018-03-26T09:41:13.684Z,4.8
2018-03-26T09:42:16.396Z,4.7
2018-03-26T09:43:18.835Z,4.7
2018-03-26T09:44:21.259Z,4.8
2018-03-26T09:45:23.704Z,4.8
2018-03-26T09:46:26.129Z,4.8
2018-03-26T09:47:28.551Z,5
2018-03-26T09:48:30.986Z,4.8
2018-03-26T09:49:33.703Z,4.7
2018-03-26T09:50:36.132Z,4.8
2018-03-26T09:51:38.556Z,4.9
2018-03-26T09:52:41.562Z,4.9
2018-03-26T09:53:43.983Z,4.9
2018-03-26T09:54:46.424Z,4.8
2018-03-26T09:55:48.848Z,4.8
2018-03-26T09:56:51.279Z,4.7
2018-03-26T09:57:54.304Z,4.7
2018-03-26T09:58:56.739Z,4.8
2018-03-26T09:59:59.161Z,4.7
2018-03-26T10:01:01.587Z,4.8
2018-03-26T10:02:04.309Z,4.8
2018-03-26T10:03:07.011Z,4.8
2018-03-26T10:04:09.442Z,4.8
2018-03-26T10:05:11.872Z,4.8
2018-03-26T10:06:14.295Z,4.8
2018-03-26T10:07:16.724Z,4.7
2018-03-26T10:08:19.456Z,4.7
2018-03-26T10:09:21.886Z,4.8
2018-03-26T10:10:24.638Z,4.8
2018-03-26T10:11:27.064Z,4.8
2018-03-26T10:12:29.488Z,4.8
2018-03-26T10:13:31.917Z,4.8
2018-03-26T10:14:34.353Z,4.8
2018-03-26T10:15:36.775Z,4.7
2018-03-26T10:16:39.504Z,4.8
2018-03-26T10:17:41.934Z,4.8
2018-03-26T10:18:44.355Z,4.8
2018-03-26T10:19:46.825Z,4.7
2018-03-26T10:20:49.208Z,4.7
2018-03-26T10:21:51.633Z,4.7
2018-03-26T10:22:54.071Z,4.7
2018-03-26T10:23:56.502Z,4.7
2018-03-26T10:24:58.927Z,4.7
2018-03-26T10:26:01.359Z,4.8
2018-03-26T10:27:03.799Z,4.7
2018-03-26T10:28:06.219Z,4.7
2018-03-26T10:29:08.932Z,4.7
2018-03-26T10:30:11.370Z,4.7
2018-03-26T10:31:14.133Z,4.7
2018-03-26T10:32:16.518Z,4.7
2018-03-26T10:33:19.238Z,4.8
2018-03-26T10:34:21.955Z,4.8
2018-03-26T10:35:24.391Z,4.8
2018-03-26T10:36:27.117Z,4.7
2018-03-26T10:37:29.531Z,4.7
2018-03-26T10:38:32.304Z,4.7
2018-03-26T10:39:34.721Z,4.8
2018-03-26T10:40:37.149Z,4.7
2018-03-26T10:41:39.577Z,4.8
2018-03-26T10:42:41.992Z,4.8
2018-03-26T10:43:44.424Z,4.7
2018-03-26T10:44:47.156Z,4.7
2018-03-26T10:45:49.579Z,4.7
2018-03-26T10:46:52.008Z,4.7
2018-03-26T10:47:54.718Z,4.7
2018-03-26T10:48:57.149Z,4.7
2018-03-26T10:49:59.585Z,4.7
2018-03-26T10:51:02.397Z,4.8
2018-03-26T10:52:04.778Z,4.8
2018-03-26T10:53:07.214Z,4.7
2018-03-26T10:54:09.647Z,4.8
2018-03-26T10:55:12.359Z,4.7
2018-03-26T10:56:15.061Z,4.7
2018-03-26T10:57:17.490Z,4.8
2018-03-26T10:58:19.930Z,4.7
2018-03-26T10:59:22.347Z,4.7
2018-03-26T11:00:24.818Z,4.7
2018-03-26T11:01:27.211Z,4.7
2018-03-26T11:02:29.638Z,4.7
2018-03-26T11:03:32.068Z,4.7
2018-03-26T11:04:34.501Z,4.8
2018-03-26T11:05:36.921Z,4.8
2018-03-26T11:06:39.356Z,4.9
2018-03-26T11:07:42.068Z,4.7
2018-03-26T11:08:44.493Z,4.6
2018-03-26T11:09:47.204Z,4.7
2018-03-26T11:10:49.636Z,4.7
2018-03-26T11:11:52.346Z,4.7
2018-03-26T11:12:54.778Z,4.8
2018-03-26T11:13:57.206Z,4.8
2018-03-26T11:14:59.912Z,4.7
2018-03-26T11:16:02.341Z,4.7
2018-03-26T11:17:04.771Z,4.7
2018-03-26T11:18:07.480Z,4.6
2018-03-26T11:19:09.934Z,4.7
2018-03-26T11:20:12.344Z,4.7
2018-03-26T11:21:14.781Z,4.7
2018-03-26T11:22:17.226Z,4.7
2018-03-26T11:23:19.644Z,4.6
2018-03-26T11:24:22.075Z,4.7
2018-03-26T11:25:24.508Z,4.7
2018-03-26T11:26:27.219Z,4.6
2018-03-26T11:27:29.650Z,4.8
2018-03-26T11:28:32.351Z,4.7
2018-03-26T11:29:34.783Z,4.8
2018-03-26T11:30:37.513Z,4.7
2018-03-26T11:31:40.508Z,4.7
2018-03-26T11:32:42.940Z,4.7
2018-03-26T11:33:45.370Z,4.7
2018-03-26T11:34:47.823Z,4.7
2018-03-26T11:35:50.250Z,4.7
2018-03-26T11:36:52.680Z,4.7
2018-03-26T11:37:55.397Z,4.7
2018-03-26T11:38:57.826Z,4.8
2018-03-26T11:40:00.262Z,4.7
2018-03-26T11:41:02.691Z,4.7
2018-03-26T11:42:05.116Z,4.7
2018-03-26T11:43:07.829Z,4.7
2018-03-26T11:44:10.273Z,4.7
2018-03-26T11:45:12.993Z,4.7
2018-03-26T11:46:15.426Z,4.7
2018-03-26T11:47:17.860Z,4.7
2018-03-26T11:48:20.295Z,4.7
2018-03-26T11:49:22.727Z,4.6
2018-03-26T11:50:25.738Z,4.8
2018-03-26T11:51:28.152Z,4.6
2018-03-26T11:52:30.577Z,4.7
2018-03-26T11:53:33.227Z,4.7
2018-03-26T11:54:35.642Z,4.8
2018-03-26T11:55:38.069Z,4.7
2018-03-26T11:56:40.503Z,4.7
2018-03-26T11:57:42.933Z,4.6
2018-03-26T11:58:45.355Z,4.6
2018-03-26T11:59:47.786Z,4.7
2018-03-26T12:00:50.260Z,4.6
2018-03-26T12:01:52.690Z,4.7
2018-03-26T12:02:55.115Z,4.8
2018-03-26T12:03:57.843Z,4.7
2018-03-26T12:05:00.269Z,4.6
2018-03-26T12:06:02.707Z,4.7
2018-03-26T12:07:05.419Z,4.7
2018-03-26T12:08:07.843Z,4.6
2018-03-26T12:09:10.276Z,4.7
2018-03-26T12:10:12.707Z,4.8
2018-03-26T12:11:15.490Z,4.7
2018-03-26T12:12:17.916Z,4.7
2018-03-26T12:13:20.351Z,4.7
2018-03-26T12:14:22.773Z,4.6
2018-03-26T12:15:25.373Z,4.7
2018-03-26T12:16:27.818Z,4.7
2018-03-26T12:17:30.231Z,4.7
2018-03-26T12:18:32.667Z,4.7
2018-03-26T12:19:35.092Z,4.6
2018-03-26T12:20:37.520Z,4.6
2018-03-26T12:21:39.943Z,4.6
2018-03-26T12:22:42.375Z,4.6
2018-03-26T12:23:44.799Z,4.7
2018-03-26T12:24:47.281Z,4.7
2018-03-26T12:25:49.698Z,4.7
2018-03-26T12:26:52.101Z,4.6
2018-03-26T12:27:54.539Z,4.6
2018-03-26T12:28:56.975Z,4.7
2018-03-26T12:29:59.397Z,4.7
2018-03-26T12:31:01.835Z,4.7
2018-03-26T12:32:04.270Z,4.7
2018-03-26T12:33:06.692Z,4.7
2018-03-26T12:34:09.121Z,4.6
2018-03-26T12:35:11.547Z,4.6
2018-03-26T12:36:13.978Z,4.6
2018-03-26T12:37:16.701Z,4.7
2018-03-26T12:38:19.135Z,4.7
2018-03-26T12:39:21.555Z,4.7
2018-03-26T12:40:24.000Z,4.7
2018-03-26T12:41:26.425Z,4.6
2018-03-26T12:42:28.868Z,4.6
2018-03-26T12:43:31.302Z,4.6
2018-03-26T12:44:33.746Z,4.7
2018-03-26T12:45:36.172Z,4.7
2018-03-26T12:46:38.880Z,4.7
2018-03-26T12:47:41.306Z,4.6
2018-03-26T12:48:43.738Z,4.6
2018-03-26T12:49:46.435Z,4.6
2018-03-26T12:50:48.872Z,4.6
2018-03-26T12:51:51.295Z,4.7
2018-03-26T12:52:53.730Z,4.7
2018-03-26T12:53:56.450Z,4.6
2018-03-26T12:54:59.178Z,4.6
2018-03-26T12:56:01.884Z,4.6
2018-03-26T12:57:04.319Z,4.6
2018-03-26T12:58:06.761Z,4.6
2018-03-26T12:59:09.187Z,4.6
2018-03-26T13:00:11.620Z,4.6
2018-03-26T13:01:14.046Z,4.6
2018-03-26T13:02:16.470Z,4.7
2018-03-26T13:03:18.902Z,4.6
2018-03-26T13:04:21.327Z,4.6
2018-03-26T13:05:23.748Z,4.6
2018-03-26T13:06:26.184Z,4.6
2018-03-26T13:07:28.614Z,4.7
2018-03-26T13:08:31.048Z,4.7
2018-03-26T13:09:33.488Z,4.6
2018-03-26T13:10:35.924Z,4.6
2018-03-26T13:11:38.353Z,4.6
2018-03-26T13:12:40.782Z,4.6
2018-03-26T13:13:43.264Z,4.6
2018-03-26T13:14:45.633Z,4.7
2018-03-26T13:15:48.059Z,4.7
2018-03-26T13:16:50.491Z,4.6
2018-03-26T13:17:52.921Z,4.6
2018-03-26T13:18:55.627Z,4.6
2018-03-26T13:19:58.062Z,4.6
2018-03-26T13:21:00.488Z,4.6
2018-03-26T13:22:03.211Z,4.7
2018-03-26T13:23:05.925Z,4.7
2018-03-26T13:24:08.347Z,4.7
2018-03-26T13:25:11.066Z,4.7
2018-03-26T13:26:13.490Z,4.6
2018-03-26T13:27:15.920Z,4.6
2018-03-26T13:28:18.349Z,4.6
2018-03-26T13:29:21.085Z,4.6
2018-03-26T13:30:23.515Z,4.7
2018-03-26T13:31:25.938Z,4.7
2018-03-26T13:32:28.373Z,4.7
2018-03-26T13:33:31.088Z,4.6
2018-03-26T13:34:33.520Z,4.6
2018-03-26T13:35:35.956Z,4.6
2018-03-26T13:36:38.671Z,4.6
2018-03-26T13:37:41.387Z,4.7
2018-03-26T13:38:43.817Z,4.7
2018-03-26T13:39:46.520Z,4.6
2018-03-26T13:40:48.956Z,4.7
2018-03-26T13:41:51.695Z,4.6
2018-03-26T13:42:54.109Z,4.7
2018-03-26T13:43:56.536Z,4.6
2018-03-26T13:44:58.964Z,4.6
2018-03-26T13:46:01.387Z,4.6
2018-03-26T13:47:03.813Z,4.7
2018-03-26T13:48:06.235Z,4.6
2018-03-26T13:49:08.957Z,4.6
2018-03-26T13:50:11.397Z,4.6
2018-03-26T13:51:13.820Z,4.7
2018-03-26T13:52:16.549Z,4.6
2018-03-26T13:53:18.969Z,4.7
2018-03-26T13:54:21.416Z,4.6
2018-03-26T13:55:24.119Z,4.7
2018-03-26T13:56:27.129Z,4.7
2018-03-26T13:57:29.563Z,4.6
2018-03-26T13:58:32.008Z,4.7
2018-03-26T13:59:34.420Z,4.7
2018-03-26T14:00:36.851Z,4.6
2018-03-26T14:01:39.272Z,4.6
2018-03-26T14:02:41.707Z,4.6
2018-03-26T14:03:44.137Z,4.6
2018-03-26T14:04:46.567Z,4.6
2018-03-26T14:05:49.288Z,4.6
2018-03-26T14:06:52.008Z,4.7
2018-03-26T14:07:54.434Z,4.7
2018-03-26T14:08:56.861Z,4.6
2018-03-26T14:09:59.282Z,4.6
2018-03-26T14:11:01.718Z,4.6
2018-03-26T14:12:04.428Z,4.7
2018-03-26T14:13:06.861Z,4.6
2018-03-26T14:14:09.284Z,4.6
2018-03-26T14:15:11.714Z,4.6
2018-03-26T14:16:14.147Z,4.5
2018-03-26T14:17:16.869Z,4.5
2018-03-26T14:18:19.305Z,4.6
2018-03-26T14:19:21.731Z,4.6
2018-03-26T14:20:24.162Z,4.6
2018-03-26T14:21:26.891Z,4.6
2018-03-26T14:22:29.317Z,4.6
2018-03-26T14:23:31.737Z,4.6
2018-03-26T14:24:34.453Z,4.6
2018-03-26T14:25:36.884Z,4.5
2018-03-26T14:26:39.309Z,4.6
2018-03-26T14:27:41.732Z,4.6
2018-03-26T14:28:44.462Z,4.6
2018-03-26T14:29:46.886Z,4.6